Pagrindinis puslapis
METAR-TAF:

METAR-TAF

Oro uostai :

Perry-Foley Airport

Perry, Florida, Jungtinės Amerikos Valstijos

platuma: 30-04-19N, ilguma: 083-34-25W, Aukštis: 13 m

Dabartinis oras

Ataskaita buvo paskelbta 12 minutes, ne 18:15 UTC
Ramus vėjas
Temperatūra 22°C
Drėgmė 43%
Slėgis 1014 hPa
Matomumas: 16.1 km
Giedras dangus

METAR: K40J 171815Z AUTO 00000KT 10SM CLR 22/09 A2995 RMK AO2 T02230094

Laikas: 14:27 (18:27 UTC)


TAF: trūkstamas

Orai ataskaitas ir orų prognozės (METAR, TAF).

turimą stotys yra geltonos ir raudonos taškus žemėlapyje.

Perkelti pele per norėdami pamatyti stoties vardą.

Tada spustelėkite, norėdami matyti oro stebėjimo ir prognozės.

Norėdami pakeisti žemėlapį: spustelėkite ant žalios mygtukų su juodo kryžiaus žemyn,; žalią mygtuką su brūkšneliu, jei norite nutolinti; arba žalių rodyklių gretimoms žemėlapius.


METAR-TAF: